首页
METAR-TAF:

METAR-TAF

机场 :

薩拉熱窩國際機場

塞拉耶佛, 波斯尼亚和黑塞哥维那

纬度: 43-49N, 经度: 018-20E, 海拔: 511米

当前天气观测

该预报发布于24分钟前的01:00 UTC
风速4节,风向西北,在西转西北之间变化
温度 16°C
湿度 100%
气压 1010 hPa
能见度10公里或以上
少量云层高于5000英尺
散云层高于6500英尺

METAR: LQSA 050100Z 31004KT 290V350 9999 FEW050 SCT065 16/16 Q1010

时间: 03:24 (01:24 UTC)

预报

该预报发布于2小时和24分钟前的23:00 UTC
预报有效从05日的 00点(UTC)到 05日的 24点(UTC)
风速2节,风向多变
能见度10公里或以上
散云层高于3500英尺
多云层高于4000英尺
几率 30% :
短暂存在
从 05日的 00点(UTC)到 05日的 08点(UTC)
能見度: 4000
多云层高于1500英尺
小雨
短暂存在
从 05日的 08点(UTC)到 05日的 24点(UTC)
能見度: 4000
多云层高于1200英尺
多云层高于3000英尺
几率 40% :
短暂存在
从 05日的 08点(UTC)到 05日的 15点(UTC)
风速12节,风向多变
少量云层高于1000英尺
少量云层高于3000英尺, 积雨云.
多云层高于4000英尺
雷暴, 雨

TAF: LQSA 042300Z 0500/0524 VRB02KT 9999 SCT035 BKN040 TX22/0514Z TN16/0505Z PROB30 TEMPO 0500/0508 4000 -RA BKN015 TEMPO 0508/0524 4000 RA BKN012 BKN030 PROB40 TEMPO 0508/0515 VRB12KT TSRA FEW010 FEW030CB BKN040

超过4000个机场的气象观测和天气预报(METAR&TAF报告)。

可查询的气象台以黄色和红色小点在地图上表示。

将鼠标移到小点上方,可查看气象台名称。

然后点击查看天气观测和预报。

如需切换地图:点击带黑十字的绿色按钮放大地图;点击带横线的绿色按钮缩小地图;或者点击绿色箭头查看邻近地区的地图。


METAR-TAF: